Stella, MO (64867)

10:34 PM CDT on September 01, 2015 (GMT -0500)
Farm Road 2100 | | Change Station
CLOSE
Current Station
Personal Weather Station
Location: Wheaton, MO
Elevation: 1335 ft
Nearby Weather Stations

Elev 1335 ft 36.79 °N, 94.07 °W | Updated 19 seconds ago

Clear
Clear
67.6 °F
Feels Like 67.6 °F
N
0.0
Wind Variable Wind from SE
Gusts 0.0 mph

Today
High -- | Low -- °F
--% Chance of Precip.
Yesterday
High -- | Low -- °F
Precip. -- in
6:47 AM 7:45 PM
Waning Gibbous, 84% visible
Pressure 30.08 in
Visibility 10.0 miles
Clouds Clear
Dew Point 65 °F
Humidity 90%
Rainfall in
Snow Depth Not available.
UV 0 out of 12
Pollen 10.60 out of 12
Air Quality Not available.
Flu Activity Not available.
METAR KHFJ 020315Z AUTO 14005KT 10SM CLR 22/18 A3008 RMK AO2
Pressure 30.08 in
Visibility 10.0 miles
Clouds Clear
Dew Point 65 °F
Humidity 90%
Rainfall in
Snow Depth Not available.
UV 0 out of 12
Pollen 10.60 out of 12
Air Quality Not available.
Flu Activity Not available.
METAR KHFJ 020315Z AUTO 14005KT 10SM CLR 22/18 A3008 RMK AO2

10-Day Weather Forecast

×

Almanac

Astronomy

Sep. 01, 2015 Rise Set
Actual Time
Civil Twilight
Nautical Twilight
Astronomical Twilight
Moon
Length of Visible Light
Length of Day
Tomorrow will be .
, % of the Moon is Illuminated

Today's Extremes

State Highs State Lows

Community

WunderPhotos

Upload Photos

1,851,690 photos uploaded!

WunderBlogs® & News

Nearby

Air Quality

  Air Quality AQ Index Pollutant
Not available.

Snow Depth

Station Depth Elevation

Earthquake Activity

City Distance Mag. Time & Date
Minimum magnitude displayed is 2.5.

Coastal Water Temperatures

Place Temperature

Stations

Nearby Weather Stations

Station Location Temp. Windchill Dew Point Humidity Wind Precip. Elev Updated Type